sensor_id;sensor_type;location;lat;lon;timestamp;pressure;altitude;pressure_sealevel;temperature;humidity
50636;BME280;36598;46.054;11.130;2022-07-23T00:00:51;99117.69;;;29.04;38.24
50636;BME280;36598;46.054;11.130;2022-07-23T00:03:16;99114.16;;;29.11;38.65
50636;BME280;36598;46.054;11.130;2022-07-23T00:05:41;99111.25;;;29.43;37.99
50636;BME280;36598;46.054;11.130;2022-07-23T00:08:07;99109.34;;;29.45;38.22
50636;BME280;36598;46.054;11.130;2022-07-23T00:10:33;99115.38;;;29.42;38.31
50636;BME280;36598;46.054;11.130;2022-07-23T00:12:58;99112.22;;;29.32;37.95
50636;BME280;36598;46.054;11.130;2022-07-23T00:15:23;99120.69;;;28.92;38.76
50636;BME280;36598;46.054;11.130;2022-07-23T00:17:49;99116.72;;;28.82;39.23
50636;BME280;36598;46.054;11.130;2022-07-23T00:20:14;99126.00;;;28.69;39.15
50636;BME280;36598;46.054;11.130;2022-07-23T00:22:49;99128.84;;;29.02;38.63
50636;BME280;36598;46.054;11.130;2022-07-23T00:25:15;99121.81;;;29.03;38.78
50636;BME280;36598;46.054;11.130;2022-07-23T00:27:40;99127.75;;;29.18;38.35
50636;BME280;36598;46.054;11.130;2022-07-23T00:30:06;99115.28;;;29.21;38.45
50636;BME280;36598;46.054;11.130;2022-07-23T00:32:31;99112.31;;;29.27;38.35
50636;BME280;36598;46.054;11.130;2022-07-23T00:34:57;99115.59;;;29.04;38.62
50636;BME280;36598;46.054;11.130;2022-07-23T00:37:22;99114.13;;;28.98;38.71
50636;BME280;36598;46.054;11.130;2022-07-23T00:39:47;99098.91;;;28.63;39.45
50636;BME280;36598;46.054;11.130;2022-07-23T00:42:13;99112.44;;;28.89;39.02
50636;BME280;36598;46.054;11.130;2022-07-23T00:44:38;99108.38;;;29.16;38.66
50636;BME280;36598;46.054;11.130;2022-07-23T00:47:03;99117.13;;;29.05;39.01
50636;BME280;36598;46.054;11.130;2022-07-23T00:49:30;99119.84;;;29.11;38.97
50636;BME280;36598;46.054;11.130;2022-07-23T00:51:56;99122.72;;;29.11;38.97
50636;BME280;36598;46.054;11.130;2022-07-23T00:54:22;99130.72;;;29.12;39.02
50636;BME280;36598;46.054;11.130;2022-07-23T00:56:48;99130.47;;;28.97;39.10
50636;BME280;36598;46.054;11.130;2022-07-23T00:59:13;99121.50;;;29.06;38.93
50636;BME280;36598;46.054;11.130;2022-07-23T01:01:39;99126.31;;;29.11;38.72
50636;BME280;36598;46.054;11.130;2022-07-23T01:04:05;99113.63;;;29.12;38.91
50636;BME280;36598;46.054;11.130;2022-07-23T01:06:32;99110.41;;;29.03;39.14
50636;BME280;36598;46.054;11.130;2022-07-23T01:08:59;99111.41;;;29.05;38.69
50636;BME280;36598;46.054;11.130;2022-07-23T01:11:24;99109.78;;;28.78;39.29
50636;BME280;36598;46.054;11.130;2022-07-23T01:13:50;99107.00;;;28.91;39.27
50636;BME280;36598;46.054;11.130;2022-07-23T01:16:15;99101.88;;;28.19;40.49
50636;BME280;36598;46.054;11.130;2022-07-23T01:18:41;99089.72;;;28.57;39.88
50636;BME280;36598;46.054;11.130;2022-07-23T01:21:06;99089.06;;;28.64;39.57
50636;BME280;36598;46.054;11.130;2022-07-23T01:23:32;99088.88;;;28.75;39.50
50636;BME280;36598;46.054;11.130;2022-07-23T01:25:58;99089.31;;;28.79;39.44
50636;BME280;36598;46.054;11.130;2022-07-23T01:28:23;99094.22;;;28.65;39.63
50636;BME280;36598;46.054;11.130;2022-07-23T01:30:48;99098.28;;;28.70;39.45
50636;BME280;36598;46.054;11.130;2022-07-23T01:33:14;99103.47;;;28.85;39.23
50636;BME280;36598;46.054;11.130;2022-07-23T01:35:39;99110.59;;;28.91;39.04
50636;BME280;36598;46.054;11.130;2022-07-23T01:38:05;99125.47;;;28.84;39.40
50636;BME280;36598;46.054;11.130;2022-07-23T01:40:30;99122.78;;;28.03;40.79
50636;BME280;36598;46.054;11.130;2022-07-23T01:42:56;99120.06;;;28.35;40.21
50636;BME280;36598;46.054;11.130;2022-07-23T01:45:21;99115.88;;;28.36;40.06
50636;BME280;36598;46.054;11.130;2022-07-23T01:47:47;99123.53;;;28.60;39.71
50636;BME280;36598;46.054;11.130;2022-07-23T01:50:12;99133.69;;;28.56;40.02
50636;BME280;36598;46.054;11.130;2022-07-23T01:52:37;99143.69;;;28.62;39.98
50636;BME280;36598;46.054;11.130;2022-07-23T01:55:03;99156.75;;;28.52;40.22
50636;BME280;36598;46.054;11.130;2022-07-23T01:57:28;99159.31;;;28.56;40.18
50636;BME280;36598;46.054;11.130;2022-07-23T01:59:53;99152.09;;;28.55;40.18
50636;BME280;36598;46.054;11.130;2022-07-23T02:02:19;99145.06;;;28.56;40.16
50636;BME280;36598;46.054;11.130;2022-07-23T02:04:44;99136.47;;;28.61;40.19
50636;BME280;36598;46.054;11.130;2022-07-23T02:07:10;99151.00;;;28.58;40.26
50636;BME280;36598;46.054;11.130;2022-07-23T02:09:35;99155.06;;;28.62;40.26
50636;BME280;36598;46.054;11.130;2022-07-23T02:12:00;99158.31;;;28.53;40.83
50636;BME280;36598;46.054;11.130;2022-07-23T02:14:26;99163.72;;;28.38;40.64
50636;BME280;36598;46.054;11.130;2022-07-23T02:16:51;99163.78;;;28.51;40.43
50636;BME280;36598;46.054;11.130;2022-07-23T02:19:17;99168.78;;;28.45;40.38
50636;BME280;36598;46.054;11.130;2022-07-23T02:21:42;99171.41;;;28.43;40.73
50636;BME280;36598;46.054;11.130;2022-07-23T02:24:08;99168.09;;;28.58;40.56
50636;BME280;36598;46.054;11.130;2022-07-23T02:26:33;99170.56;;;28.48;40.84
50636;BME280;36598;46.054;11.130;2022-07-23T02:29:00;99167.13;;;28.31;41.51
50636;BME280;36598;46.054;11.130;2022-07-23T02:31:25;99166.69;;;28.27;41.54
50636;BME280;36598;46.054;11.130;2022-07-23T02:33:50;99147.72;;;28.54;40.97
50636;BME280;36598;46.054;11.130;2022-07-23T02:36:15;99139.06;;;28.59;40.78
50636;BME280;36598;46.054;11.130;2022-07-23T02:38:41;99146.28;;;28.60;41.08
50636;BME280;36598;46.054;11.130;2022-07-23T02:41:06;99139.06;;;28.59;40.72
50636;BME280;36598;46.054;11.130;2022-07-23T02:43:31;99142.94;;;28.43;40.96
50636;BME280;36598;46.054;11.130;2022-07-23T02:45:56;99144.09;;;28.53;40.49
50636;BME280;36598;46.054;11.130;2022-07-23T02:48:22;99143.75;;;28.00;41.58
50636;BME280;36598;46.054;11.130;2022-07-23T02:50:47;99147.31;;;28.25;41.23
50636;BME280;36598;46.054;11.130;2022-07-23T02:53:12;99152.13;;;28.36;41.13
50636;BME280;36598;46.054;11.130;2022-07-23T02:55:38;99164.47;;;28.38;41.12
50636;BME280;36598;46.054;11.130;2022-07-23T02:58:03;99156.69;;;28.01;41.44
50636;BME280;36598;46.054;11.130;2022-07-23T03:00:28;99146.59;;;28.00;41.36
50636;BME280;36598;46.054;11.130;2022-07-23T03:02:53;99145.81;;;27.32;43.10
50636;BME280;36598;46.054;11.130;2022-07-23T03:05:19;99157.13;;;27.86;41.99
50636;BME280;36598;46.054;11.130;2022-07-23T03:07:44;99153.38;;;27.97;41.81
50636;BME280;36598;46.054;11.130;2022-07-23T03:10:09;99158.75;;;28.01;42.04
50636;BME280;36598;46.054;11.130;2022-07-23T03:12:34;99160.44;;;28.09;41.82
50636;BME280;36598;46.054;11.130;2022-07-23T03:15:00;99173.69;;;28.26;41.25
50636;BME280;36598;46.054;11.130;2022-07-23T03:17:25;99176.22;;;28.29;40.89
50636;BME280;36598;46.054;11.130;2022-07-23T03:19:50;99175.91;;;28.33;40.56
50636;BME280;36598;46.054;11.130;2022-07-23T03:22:15;99176.81;;;27.84;41.56
50636;BME280;36598;46.054;11.130;2022-07-23T03:24:41;99183.91;;;28.15;41.16
50636;BME280;36598;46.054;11.130;2022-07-23T03:27:22;99184.22;;;28.12;41.19
50636;BME280;36598;46.054;11.130;2022-07-23T03:29:48;99182.78;;;27.81;41.84
50636;BME280;36598;46.054;11.130;2022-07-23T03:32:13;99182.88;;;27.45;42.66
50636;BME280;36598;46.054;11.130;2022-07-23T03:34:38;99183.78;;;27.83;41.97
50636;BME280;36598;46.054;11.130;2022-07-23T03:37:03;99195.88;;;27.89;41.97
50636;BME280;36598;46.054;11.130;2022-07-23T03:39:29;99195.41;;;27.85;42.08
50636;BME280;36598;46.054;11.130;2022-07-23T03:41:54;99191.03;;;28.03;41.66
50636;BME280;36598;46.054;11.130;2022-07-23T03:44:19;99199.66;;;27.98;41.49
50636;BME280;36598;46.054;11.130;2022-07-23T03:46:44;99198.44;;;28.12;40.97
50636;BME280;36598;46.054;11.130;2022-07-23T03:49:10;99208.50;;;28.13;40.88
50636;BME280;36598;46.054;11.130;2022-07-23T03:51:35;99205.66;;;28.13;41.00
50636;BME280;36598;46.054;11.130;2022-07-23T03:54:00;99221.72;;;28.10;41.07
50636;BME280;36598;46.054;11.130;2022-07-23T03:56:25;99230.97;;;27.92;41.33
50636;BME280;36598;46.054;11.130;2022-07-23T03:58:51;99242.44;;;27.56;42.54
50636;BME280;36598;46.054;11.130;2022-07-23T04:01:16;99244.03;;;27.82;41.76
50636;BME280;36598;46.054;11.130;2022-07-23T04:03:42;99243.88;;;27.68;41.78
50636;BME280;36598;46.054;11.130;2022-07-23T04:06:07;99241.75;;;27.50;41.96
50636;BME280;36598;46.054;11.130;2022-07-23T04:08:32;99251.06;;;27.45;41.74
50636;BME280;36598;46.054;11.130;2022-07-23T04:10:58;99253.88;;;27.20;42.12
50636;BME280;36598;46.054;11.130;2022-07-23T04:13:23;99243.63;;;27.66;41.70
50636;BME280;36598;46.054;11.130;2022-07-23T04:15:48;99252.63;;;27.70;41.48
50636;BME280;36598;46.054;11.130;2022-07-23T04:18:15;99251.50;;;27.85;41.20
50636;BME280;36598;46.054;11.130;2022-07-23T04:20:42;99240.16;;;27.79;41.07
50636;BME280;36598;46.054;11.130;2022-07-23T04:23:07;99237.38;;;27.98;40.83
50636;BME280;36598;46.054;11.130;2022-07-23T04:25:34;99253.88;;;28.05;41.02
50636;BME280;36598;46.054;11.130;2022-07-23T04:27:59;99256.34;;;28.14;41.17
50636;BME280;36598;46.054;11.130;2022-07-23T04:30:25;99242.72;;;28.07;41.01
50636;BME280;36598;46.054;11.130;2022-07-23T04:32:50;99249.34;;;28.15;40.68
50636;BME280;36598;46.054;11.130;2022-07-23T04:35:15;99249.47;;;28.04;40.61
50636;BME280;36598;46.054;11.130;2022-07-23T04:37:41;99249.56;;;28.17;40.65
50636;BME280;36598;46.054;11.130;2022-07-23T04:40:06;99255.19;;;28.23;40.71
50636;BME280;36598;46.054;11.130;2022-07-23T04:42:31;99246.50;;;27.91;40.76
50636;BME280;36598;46.054;11.130;2022-07-23T04:44:56;99246.06;;;27.57;41.70
50636;BME280;36598;46.054;11.130;2022-07-23T04:47:22;99249.81;;;27.95;40.59
50636;BME280;36598;46.054;11.130;2022-07-23T04:49:47;99248.84;;;27.92;40.85
50636;BME280;36598;46.054;11.130;2022-07-23T04:52:12;99245.66;;;27.96;40.77
50636;BME280;36598;46.054;11.130;2022-07-23T04:54:38;99249.56;;;28.17;40.55
50636;BME280;36598;46.054;11.130;2022-07-23T04:57:03;99265.25;;;28.24;40.47
50636;BME280;36598;46.054;11.130;2022-07-23T04:59:28;99261.25;;;28.14;40.55
50636;BME280;36598;46.054;11.130;2022-07-23T05:01:53;99278.25;;;28.44;40.25
50636;BME280;36598;46.054;11.130;2022-07-23T05:04:19;99275.88;;;28.48;40.06
50636;BME280;36598;46.054;11.130;2022-07-23T05:06:44;99279.41;;;28.30;40.39
50636;BME280;36598;46.054;11.130;2022-07-23T05:09:09;99279.78;;;28.45;40.02
50636;BME280;36598;46.054;11.130;2022-07-23T05:11:34;99282.63;;;28.45;40.28
50636;BME280;36598;46.054;11.130;2022-07-23T05:14:00;99287.63;;;28.58;40.03
50636;BME280;36598;46.054;11.130;2022-07-23T05:16:25;99281.00;;;28.68;39.87
50636;BME280;36598;46.054;11.130;2022-07-23T05:18:50;99278.94;;;28.69;39.80
50636;BME280;36598;46.054;11.130;2022-07-23T05:21:16;99276.00;;;28.56;38.93
50636;BME280;36598;46.054;11.130;2022-07-23T05:23:41;99281.66;;;28.61;38.82
50636;BME280;36598;46.054;11.130;2022-07-23T05:26:06;99283.31;;;28.51;38.41
50636;BME280;36598;46.054;11.130;2022-07-23T05:28:31;99278.78;;;28.42;38.56
50636;BME280;36598;46.054;11.130;2022-07-23T05:30:57;99270.53;;;28.39;38.24
50636;BME280;36598;46.054;11.130;2022-07-23T05:33:22;99269.84;;;28.52;37.80
50636;BME280;36598;46.054;11.130;2022-07-23T05:35:47;99270.00;;;28.59;37.32
50636;BME280;36598;46.054;11.130;2022-07-23T05:38:13;99275.47;;;28.76;37.14
50636;BME280;36598;46.054;11.130;2022-07-23T05:40:38;99279.72;;;28.88;37.03
50636;BME280;36598;46.054;11.130;2022-07-23T05:43:03;99282.66;;;28.83;37.25
50636;BME280;36598;46.054;11.130;2022-07-23T05:45:28;99277.88;;;28.53;37.27
50636;BME280;36598;46.054;11.130;2022-07-23T05:47:54;99276.00;;;28.37;37.68
50636;BME280;36598;46.054;11.130;2022-07-23T05:50:19;99285.31;;;28.37;37.40
50636;BME280;36598;46.054;11.130;2022-07-23T05:52:44;99286.53;;;28.17;37.58
50636;BME280;36598;46.054;11.130;2022-07-23T05:55:10;99287.59;;;28.39;37.26
50636;BME280;36598;46.054;11.130;2022-07-23T05:57:37;99284.75;;;28.39;36.54
50636;BME280;36598;46.054;11.130;2022-07-23T06:00:03;99283.56;;;28.53;36.31
50636;BME280;36598;46.054;11.130;2022-07-23T06:02:29;99301.03;;;28.44;36.41
50636;BME280;36598;46.054;11.130;2022-07-23T06:04:54;99297.28;;;28.74;35.75
50636;BME280;36598;46.054;11.130;2022-07-23T06:07:20;99311.03;;;28.69;35.49
50636;BME280;36598;46.054;11.130;2022-07-23T06:09:45;99318.44;;;28.78;34.90
50636;BME280;36598;46.054;11.130;2022-07-23T06:12:12;99310.34;;;28.63;35.14
50636;BME280;36598;46.054;11.130;2022-07-23T06:14:37;99315.59;;;28.78;34.90
50636;BME280;36598;46.054;11.130;2022-07-23T06:17:02;99320.88;;;28.68;34.58
50636;BME280;36598;46.054;11.130;2022-07-23T06:19:28;99324.97;;;28.92;33.98
50636;BME280;36598;46.054;11.130;2022-07-23T06:21:53;99341.47;;;29.18;33.95
50636;BME280;36598;46.054;11.130;2022-07-23T06:24:18;99334.44;;;29.38;33.65
50636;BME280;36598;46.054;11.130;2022-07-23T06:26:43;99319.06;;;29.41;33.88
50636;BME280;36598;46.054;11.130;2022-07-23T06:29:09;99337.19;;;29.76;32.97
50636;BME280;36598;46.054;11.130;2022-07-23T06:31:34;99333.56;;;29.75;33.01
50636;BME280;36598;46.054;11.130;2022-07-23T06:34:00;99330.50;;;29.73;32.83
50636;BME280;36598;46.054;11.130;2022-07-23T06:36:25;99342.03;;;29.81;32.85
50636;BME280;36598;46.054;11.130;2022-07-23T06:38:50;99350.31;;;29.65;32.63
50636;BME280;36598;46.054;11.130;2022-07-23T06:41:16;99351.53;;;29.38;32.84
50636;BME280;36598;46.054;11.130;2022-07-23T06:43:41;99358.56;;;29.50;32.94
50636;BME280;36598;46.054;11.130;2022-07-23T06:46:06;99358.06;;;29.33;33.48
50636;BME280;36598;46.054;11.130;2022-07-23T06:48:31;99354.47;;;29.13;33.16
50636;BME280;36598;46.054;11.130;2022-07-23T06:50:59;99357.59;;;29.29;33.26
50636;BME280;36598;46.054;11.130;2022-07-23T06:53:24;99358.00;;;29.19;33.75
50636;BME280;36598;46.054;11.130;2022-07-23T06:55:49;99367.34;;;29.52;33.73
50636;BME280;36598;46.054;11.130;2022-07-23T06:58:15;99357.84;;;29.31;33.48
50636;BME280;36598;46.054;11.130;2022-07-23T07:00:40;99362.63;;;30.19;32.61
50636;BME280;36598;46.054;11.130;2022-07-23T07:03:06;99362.38;;;30.70;31.53
50636;BME280;36598;46.054;11.130;2022-07-23T07:05:31;99360.56;;;30.59;31.91
50636;BME280;36598;46.054;11.130;2022-07-23T07:07:56;99352.81;;;31.41;30.51
50636;BME280;36598;46.054;11.130;2022-07-23T07:10:22;99365.50;;;31.54;30.86
50636;BME280;36598;46.054;11.130;2022-07-23T07:12:47;99363.28;;;31.81;30.33
50636;BME280;36598;46.054;11.130;2022-07-23T07:15:12;99370.91;;;31.57;30.71
50636;BME280;36598;46.054;11.130;2022-07-23T07:17:38;99362.25;;;31.71;30.64
50636;BME280;36598;46.054;11.130;2022-07-23T07:20:04;99368.72;;;31.71;30.57
50636;BME280;36598;46.054;11.130;2022-07-23T07:22:29;99366.16;;;32.30;29.68
50636;BME280;36598;46.054;11.130;2022-07-23T07:24:55;99365.94;;;31.79;30.62
50636;BME280;36598;46.054;11.130;2022-07-23T07:27:20;99357.34;;;31.58;30.71
50636;BME280;36598;46.054;11.130;2022-07-23T07:29:45;99361.44;;;32.12;30.18
50636;BME280;36598;46.054;11.130;2022-07-23T07:32:11;99358.63;;;31.91;30.59
50636;BME280;36598;46.054;11.130;2022-07-23T07:34:36;99349.88;;;32.46;29.64
50636;BME280;36598;46.054;11.130;2022-07-23T07:37:01;99342.69;;;32.60;29.57
50636;BME280;36598;46.054;11.130;2022-07-23T07:39:27;99340.97;;;32.57;29.53
50636;BME280;36598;46.054;11.130;2022-07-23T07:41:52;99339.09;;;32.67;29.64
50636;BME280;36598;46.054;11.130;2022-07-23T07:44:17;99342.97;;;32.13;30.46
50636;BME280;36598;46.054;11.130;2022-07-23T07:46:43;99348.53;;;32.19;30.62
50636;BME280;36598;46.054;11.130;2022-07-23T07:49:08;99346.59;;;32.13;30.51
50636;BME280;36598;46.054;11.130;2022-07-23T07:51:33;99351.41;;;31.77;30.90
50636;BME280;36598;46.054;11.130;2022-07-23T07:53:59;99353.22;;;32.65;29.98
50636;BME280;36598;46.054;11.130;2022-07-23T07:56:25;99349.63;;;31.87;30.81
50636;BME280;36598;46.054;11.130;2022-07-23T07:58:50;99352.34;;;31.92;31.11
50636;BME280;36598;46.054;11.130;2022-07-23T08:01:15;99351.81;;;31.39;31.93
50636;BME280;36598;46.054;11.130;2022-07-23T08:03:42;99352.81;;;32.33;30.86
50636;BME280;36598;46.054;11.130;2022-07-23T08:06:07;99351.94;;;32.74;30.65
50636;BME280;36598;46.054;11.130;2022-07-23T08:08:33;99347.00;;;32.46;30.26
50636;BME280;36598;46.054;11.130;2022-07-23T08:10:58;99368.25;;;32.01;31.22
50636;BME280;36598;46.054;11.130;2022-07-23T08:13:24;99360.13;;;31.50;31.83
50636;BME280;36598;46.054;11.130;2022-07-23T08:15:49;99357.00;;;31.40;31.99
50636;BME280;36598;46.054;11.130;2022-07-23T08:18:14;99351.63;;;31.37;31.96
50636;BME280;36598;46.054;11.130;2022-07-23T08:20:39;99361.31;;;30.86;33.32
50636;BME280;36598;46.054;11.130;2022-07-23T08:23:06;99362.94;;;30.68;33.78
50636;BME280;36598;46.054;11.130;2022-07-23T08:25:33;99363.75;;;30.42;34.50
50636;BME280;36598;46.054;11.130;2022-07-23T08:27:59;99366.81;;;30.44;34.51
50636;BME280;36598;46.054;11.130;2022-07-23T08:30:25;99370.78;;;30.41;34.15
50636;BME280;36598;46.054;11.130;2022-07-23T08:32:54;99364.63;;;30.51;34.00
50636;BME280;36598;46.054;11.130;2022-07-23T08:35:30;99363.22;;;31.18;33.27
50636;BME280;36598;46.054;11.130;2022-07-23T08:37:56;99356.25;;;31.27;32.83
50636;BME280;36598;46.054;11.130;2022-07-23T08:40:21;99359.53;;;31.65;32.55
50636;BME280;36598;46.054;11.130;2022-07-23T08:42:47;99364.84;;;31.27;33.11
50636;BME280;36598;46.054;11.130;2022-07-23T08:45:13;99371.81;;;31.52;33.02
50636;BME280;36598;46.054;11.130;2022-07-23T08:47:40;99371.53;;;30.82;33.67
50636;BME280;36598;46.054;11.130;2022-07-23T08:50:06;99372.16;;;31.01;33.54
50636;BME280;36598;46.054;11.130;2022-07-23T08:52:32;99365.59;;;31.61;32.75
50636;BME280;36598;46.054;11.130;2022-07-23T08:54:57;99362.31;;;32.49;31.14
50636;BME280;36598;46.054;11.130;2022-07-23T08:57:23;99363.03;;;33.22;30.52
50636;BME280;36598;46.054;11.130;2022-07-23T08:59:49;99368.16;;;33.23;30.05
50636;BME280;36598;46.054;11.130;2022-07-23T09:02:14;99354.63;;;33.24;30.10
50636;BME280;36598;46.054;11.130;2022-07-23T09:04:39;99364.81;;;33.48;29.41
50636;BME280;36598;46.054;11.130;2022-07-23T09:07:05;99364.47;;;33.67;29.26
50636;BME280;36598;46.054;11.130;2022-07-23T09:09:30;99353.97;;;33.77;29.01
50636;BME280;36598;46.054;11.130;2022-07-23T09:12:03;99355.28;;;33.60;29.53
50636;BME280;36598;46.054;11.130;2022-07-23T09:14:42;99354.16;;;33.86;29.07
50636;BME280;36598;46.054;11.130;2022-07-23T09:17:17;99350.84;;;33.44;29.25
50636;BME280;36598;46.054;11.130;2022-07-23T09:19:43;99341.50;;;33.82;29.45
50636;BME280;36598;46.054;11.130;2022-07-23T09:22:18;99332.72;;;33.80;29.43
50636;BME280;36598;46.054;11.130;2022-07-23T09:27:47;99349.94;;;33.87;28.52
50636;BME280;36598;46.054;11.130;2022-07-23T09:30:13;99333.50;;;34.03;28.50
50636;BME280;36598;46.054;11.130;2022-07-23T09:32:38;99332.16;;;33.89;29.52
50636;BME280;36598;46.054;11.130;2022-07-23T09:35:04;99329.66;;;33.78;29.63
50636;BME280;36598;46.054;11.130;2022-07-23T09:37:29;99331.38;;;34.27;28.42
50636;BME280;36598;46.054;11.130;2022-07-23T09:40:02;99323.16;;;34.08;28.80
50636;BME280;36598;46.054;11.130;2022-07-23T09:42:28;99320.06;;;34.29;28.53
50636;BME280;36598;46.054;11.130;2022-07-23T09:44:54;99309.31;;;34.37;28.13
50636;BME280;36598;46.054;11.130;2022-07-23T09:47:21;99302.38;;;34.55;27.98
50636;BME280;36598;46.054;11.130;2022-07-23T09:50:00;99303.59;;;34.29;28.16
50636;BME280;36598;46.054;11.130;2022-07-23T09:52:33;99302.81;;;34.29;28.15
50636;BME280;36598;46.054;11.130;2022-07-23T09:54:59;99308.72;;;34.54;27.63
50636;BME280;36598;46.054;11.130;2022-07-23T09:57:25;99286.44;;;33.99;28.14
50636;BME280;36598;46.054;11.130;2022-07-23T09:59:50;99292.00;;;33.97;28.06
50636;BME280;36598;46.054;11.130;2022-07-23T10:02:16;99282.41;;;33.56;28.30
50636;BME280;36598;46.054;11.130;2022-07-23T10:04:41;99282.81;;;33.68;28.47
50636;BME280;36598;46.054;11.130;2022-07-23T10:07:08;99280.69;;;33.68;28.11
50636;BME280;36598;46.054;11.130;2022-07-23T10:09:39;99276.09;;;33.73;27.91
50636;BME280;36598;46.054;11.130;2022-07-23T10:12:05;99274.19;;;33.52;27.68
50636;BME280;36598;46.054;11.130;2022-07-23T10:14:49;99263.84;;;33.57;27.45
50636;BME280;36598;46.054;11.130;2022-07-23T10:17:15;99261.53;;;33.17;28.08
50636;BME280;36598;46.054;11.130;2022-07-23T10:19:40;99257.16;;;33.47;27.65
50636;BME280;36598;46.054;11.130;2022-07-23T10:22:19;99253.13;;;33.42;27.21
50636;BME280;36598;46.054;11.130;2022-07-23T10:30:04;99248.53;;;33.85;26.93
50636;BME280;36598;46.054;11.130;2022-07-23T10:37:42;99233.59;;;33.94;27.73
50636;BME280;36598;46.054;11.130;2022-07-23T10:42:34;99230.00;;;34.49;26.73
50636;BME280;36598;46.054;11.130;2022-07-23T10:45:00;99215.22;;;34.05;27.03
50636;BME280;36598;46.054;11.130;2022-07-23T10:47:26;99212.59;;;34.39;27.05
50636;BME280;36598;46.054;11.130;2022-07-23T10:50:19;99210.91;;;34.36;26.46
50636;BME280;36598;46.054;11.130;2022-07-23T10:57:54;99192.03;;;34.58;26.47
50636;BME280;36598;46.054;11.130;2022-07-23T11:00:23;99194.66;;;34.72;25.83
50636;BME280;36598;46.054;11.130;2022-07-23T11:02:50;99186.00;;;34.39;26.10
50636;BME280;36598;46.054;11.130;2022-07-23T11:05:17;99186.28;;;34.58;26.27
50636;BME280;36598;46.054;11.130;2022-07-23T11:16:07;99157.25;;;34.79;27.71
50636;BME280;36598;46.054;11.130;2022-07-23T11:34:39;99108.22;;;35.02;26.18
50636;BME280;36598;46.054;11.130;2022-07-23T11:37:05;99112.13;;;34.64;27.07
50636;BME280;36598;46.054;11.130;2022-07-23T11:39:31;99108.06;;;34.68;27.11
50636;BME280;36598;46.054;11.130;2022-07-23T11:41:57;99096.88;;;34.54;26.57
50636;BME280;36598;46.054;11.130;2022-07-23T11:44:33;99095.28;;;34.28;27.10
50636;BME280;36598;46.054;11.130;2022-07-23T11:46:59;99100.88;;;34.26;27.20
50636;BME280;36598;46.054;11.130;2022-07-23T11:49:25;99084.81;;;34.16;27.11
50636;BME280;36598;46.054;11.130;2022-07-23T11:52:33;99091.28;;;34.24;26.61
50636;BME280;36598;46.054;11.130;2022-07-23T11:54:50;99079.03;;;34.81;27.13
50636;BME280;36598;46.054;11.130;2022-07-23T11:57:16;99068.78;;;34.95;26.48
50636;BME280;36598;46.054;11.130;2022-07-23T11:59:42;99071.47;;;34.93;26.81
50636;BME280;36598;46.054;11.130;2022-07-23T12:02:08;99076.53;;;35.27;26.16
50636;BME280;36598;46.054;11.130;2022-07-23T12:04:51;99070.38;;;35.31;26.50
50636;BME280;36598;46.054;11.130;2022-07-23T12:07:34;99058.72;;;35.46;26.50
50636;BME280;36598;46.054;11.130;2022-07-23T12:10:01;99051.66;;;35.40;26.47
50636;BME280;36598;46.054;11.130;2022-07-23T12:12:27;99049.75;;;35.42;26.73
50636;BME280;36598;46.054;11.130;2022-07-23T12:14:59;99056.69;;;35.56;25.90
50636;BME280;36598;46.054;11.130;2022-07-23T12:17:28;99051.09;;;35.58;25.98
50636;BME280;36598;46.054;11.130;2022-07-23T12:19:55;99048.91;;;35.49;25.69
50636;BME280;36598;46.054;11.130;2022-07-23T12:22:21;99041.75;;;35.16;26.02
50636;BME280;36598;46.054;11.130;2022-07-23T12:24:53;99037.03;;;35.45;25.99
50636;BME280;36598;46.054;11.130;2022-07-23T12:27:22;99031.72;;;35.59;26.13
50636;BME280;36598;46.054;11.130;2022-07-23T12:29:48;99021.53;;;35.75;25.60
50636;BME280;36598;46.054;11.130;2022-07-23T12:32:23;99022.63;;;35.80;26.43
50636;BME280;36598;46.054;11.130;2022-07-23T12:34:50;99013.00;;;35.68;26.04
50636;BME280;36598;46.054;11.130;2022-07-23T12:42:44;98997.41;;;35.71;26.06
50636;BME280;36598;46.054;11.130;2022-07-23T12:45:10;98991.34;;;35.32;25.62
50636;BME280;36598;46.054;11.130;2022-07-23T12:47:52;98991.53;;;35.51;25.60
50636;BME280;36598;46.054;11.130;2022-07-23T12:50:34;98986.84;;;35.73;25.85
50636;BME280;36598;46.054;11.130;2022-07-23T12:53:07;98979.50;;;35.28;26.04
50636;BME280;36598;46.054;11.130;2022-07-23T12:55:33;98967.97;;;35.45;26.00
50636;BME280;36598;46.054;11.130;2022-07-23T13:00:30;98968.69;;;35.98;24.94
50636;BME280;36598;46.054;11.130;2022-07-23T13:02:56;98969.25;;;35.96;25.68
50636;BME280;36598;46.054;11.130;2022-07-23T13:05:21;98973.16;;;36.18;25.20
50636;BME280;36598;46.054;11.130;2022-07-23T13:07:46;98972.38;;;36.18;24.79
50636;BME280;36598;46.054;11.130;2022-07-23T13:10:12;98965.88;;;36.17;25.10
50636;BME280;36598;46.054;11.130;2022-07-23T13:12:37;98960.31;;;35.75;25.58
50636;BME280;36598;46.054;11.130;2022-07-23T13:15:02;98966.69;;;35.73;26.02
50636;BME280;36598;46.054;11.130;2022-07-23T13:17:28;98964.00;;;35.41;26.25
50636;BME280;36598;46.054;11.130;2022-07-23T13:19:53;98974.19;;;35.07;26.63
50636;BME280;36598;46.054;11.130;2022-07-23T13:22:18;98972.56;;;34.96;27.34
50636;BME280;36598;46.054;11.130;2022-07-23T13:24:43;98973.94;;;35.12;27.16
50636;BME280;36598;46.054;11.130;2022-07-23T13:27:09;98978.34;;;35.48;26.50
50636;BME280;36598;46.054;11.130;2022-07-23T13:29:34;98975.25;;;35.29;26.69
50636;BME280;36598;46.054;11.130;2022-07-23T13:31:59;98978.91;;;35.47;26.16
50636;BME280;36598;46.054;11.130;2022-07-23T13:34:24;98975.44;;;35.31;26.54
50636;BME280;36598;46.054;11.130;2022-07-23T13:36:50;98974.00;;;34.87;27.01
50636;BME280;36598;46.054;11.130;2022-07-23T13:39:15;98969.50;;;34.94;27.32